createdAt,value
2019-02-24T00:01:32.064Z,-1.00
2019-02-24T00:04:00.964Z,-0.90
2019-02-24T00:06:29.944Z,-1.00
2019-02-24T00:08:58.711Z,-1.00
2019-02-24T00:11:27.580Z,-1.00
2019-02-24T00:13:56.472Z,-1.00
2019-02-24T00:16:25.660Z,-1.00
2019-02-24T00:18:54.442Z,-0.90
2019-02-24T00:21:23.520Z,-0.90
2019-02-24T00:23:52.385Z,-0.90
2019-02-24T00:26:21.249Z,-0.90
2019-02-24T00:28:50.899Z,-0.90
2019-02-24T00:31:20.018Z,-0.90
2019-02-24T00:33:48.862Z,-0.80
2019-02-24T00:36:18.109Z,-0.80
2019-02-24T00:38:46.971Z,-0.80
2019-02-24T00:41:15.873Z,-0.80
2019-02-24T00:43:44.886Z,-0.80
2019-02-24T00:46:13.998Z,-0.80
2019-02-24T00:48:42.829Z,-0.80
2019-02-24T00:51:11.893Z,-0.80
2019-02-24T00:53:40.824Z,-0.80
2019-02-24T00:56:10.001Z,-0.80
2019-02-24T00:58:38.782Z,-0.80
2019-02-24T01:01:07.714Z,-0.80
2019-02-24T01:03:37.482Z,-0.90
2019-02-24T01:06:06.232Z,-0.80
2019-02-24T01:08:34.954Z,-0.80
2019-02-24T01:11:03.748Z,-0.80
2019-02-24T01:13:32.459Z,-0.80
2019-02-24T01:16:01.328Z,-0.80
2019-02-24T01:18:30.094Z,-0.80
2019-02-24T01:20:59.176Z,-0.80
2019-02-24T01:23:28.024Z,-0.90
2019-02-24T01:25:56.912Z,-0.90
2019-02-24T01:28:25.759Z,-0.80
2019-02-24T01:30:54.799Z,-0.90
2019-02-24T01:33:23.534Z,-0.80
2019-02-24T01:35:52.758Z,-0.90
2019-02-24T01:38:21.530Z,-0.90
2019-02-24T01:40:50.340Z,-0.90
2019-02-24T01:43:19.122Z,-0.90
2019-02-24T01:45:47.892Z,-0.90
2019-02-24T01:48:16.706Z,-1.00
2019-02-24T01:50:45.523Z,-1.00
2019-02-24T01:53:14.396Z,-1.00
2019-02-24T01:55:43.182Z,-1.00
2019-02-24T01:58:12.071Z,-1.00
2019-02-24T02:00:40.952Z,-1.00
2019-02-24T02:03:09.735Z,-1.00
2019-02-24T02:05:38.519Z,-1.00
2019-02-24T02:08:07.403Z,-1.00
2019-02-24T02:10:36.249Z,-1.10
2019-02-24T02:13:05.201Z,-1.10
2019-02-24T02:15:33.932Z,-1.10
2019-02-24T02:18:02.715Z,-1.10
2019-02-24T02:20:32.022Z,-1.20
2019-02-24T02:23:01.138Z,-1.20
2019-02-24T02:25:29.958Z,-1.20
2019-02-24T02:27:59.234Z,-1.20
2019-02-24T02:30:28.110Z,-1.30
2019-02-24T02:32:57.247Z,-1.30
2019-02-24T02:35:26.052Z,-1.30
2019-02-24T02:37:54.823Z,-1.30
2019-02-24T02:40:24.016Z,-1.30
2019-02-24T02:42:52.831Z,-1.40
2019-02-24T02:45:21.645Z,-1.40
2019-02-24T02:47:50.528Z,-1.30
2019-02-24T02:50:19.761Z,-1.30
2019-02-24T02:52:48.961Z,-1.30
2019-02-24T02:55:17.842Z,-1.40
2019-02-24T02:57:46.605Z,-1.40
2019-02-24T03:00:28.941Z,-1.40
2019-02-24T03:20:21.542Z,-1.20
2019-02-24T03:22:50.803Z,-1.30
2019-02-24T03:25:19.977Z,-1.30
2019-02-24T03:27:49.256Z,-1.30
2019-02-24T03:30:18.061Z,-1.30
2019-02-24T03:32:46.950Z,-1.40
2019-02-24T03:35:16.223Z,-1.30
2019-02-24T03:37:45.079Z,-1.30
2019-02-24T03:40:13.928Z,-1.40
2019-02-24T03:42:42.824Z,-1.40
2019-02-24T03:45:11.986Z,-1.40
2019-02-24T03:47:40.866Z,-1.40
2019-02-24T03:50:10.998Z,-1.40
2019-02-24T03:52:39.891Z,-1.40
2019-02-24T03:55:09.071Z,-1.40
2019-02-24T03:57:38.110Z,-1.40
2019-02-24T04:00:07.544Z,-1.40
2019-02-24T04:02:36.514Z,-1.50
2019-02-24T04:05:05.464Z,-1.40
2019-02-24T04:07:34.272Z,-1.50
2019-02-24T04:10:03.073Z,-1.40
2019-02-24T04:12:32.031Z,-1.40
2019-02-24T04:15:01.136Z,-1.30
2019-02-24T04:17:29.963Z,-1.40
2019-02-24T04:19:58.846Z,-1.40
2019-02-24T04:22:27.718Z,-1.40
2019-02-24T04:24:56.519Z,-1.40
2019-02-24T04:27:25.278Z,-1.40
2019-02-24T04:29:54.095Z,-1.40
2019-02-24T04:32:22.914Z,-1.30
2019-02-24T04:34:51.675Z,-1.40
2019-02-24T04:37:20.689Z,-1.30
2019-02-24T04:39:49.436Z,-1.30
2019-02-24T04:42:18.837Z,-1.30
2019-02-24T04:44:47.635Z,-1.30
2019-02-24T04:47:16.650Z,-1.30
2019-02-24T04:49:45.448Z,-1.30
2019-02-24T04:52:14.218Z,-1.30
2019-02-24T04:54:43.088Z,-1.30
2019-02-24T04:57:12.174Z,-1.30
2019-02-24T04:59:41.016Z,-1.30
2019-02-24T05:02:09.763Z,-1.30
2019-02-24T05:04:38.818Z,-1.40
2019-02-24T05:07:07.714Z,-1.40
2019-02-24T05:09:36.580Z,-1.40
2019-02-24T05:12:05.362Z,-1.50
2019-02-24T05:14:34.714Z,-1.50
2019-02-24T05:17:03.539Z,-1.50
2019-02-24T05:19:32.964Z,-1.50
2019-02-24T05:22:01.816Z,-1.50
2019-02-24T05:24:30.640Z,-1.50
2019-02-24T05:26:59.576Z,-1.50
2019-02-24T05:29:28.681Z,-1.50
2019-02-24T05:31:57.515Z,-1.50
2019-02-24T05:34:26.303Z,-1.60
2019-02-24T05:36:55.075Z,-1.60
2019-02-24T05:39:24.496Z,-1.60
2019-02-24T05:41:53.623Z,-1.60
2019-02-24T05:44:22.374Z,-1.60
2019-02-24T05:46:51.344Z,-1.50
2019-02-24T05:49:20.156Z,-1.50
2019-02-24T05:51:49.019Z,-1.50
2019-02-24T05:54:17.818Z,-1.40
2019-02-24T05:56:46.691Z,-1.50
2019-02-24T05:59:15.526Z,-1.50
2019-02-24T06:01:44.498Z,-1.40
2019-02-24T06:04:13.561Z,-1.40
2019-02-24T06:06:42.373Z,-1.40
2019-02-24T06:09:11.556Z,-1.40
2019-02-24T06:11:40.371Z,-1.40
2019-02-24T06:14:09.179Z,-1.40
2019-02-24T06:16:37.939Z,-1.30
2019-02-24T06:19:06.766Z,-1.30
2019-02-24T06:21:35.634Z,-1.30
2019-02-24T06:24:04.653Z,-1.30
2019-02-24T06:26:33.416Z,-1.20
2019-02-24T06:29:02.260Z,-1.20
2019-02-24T06:31:31.082Z,-1.10
2019-02-24T06:33:59.901Z,-1.10
2019-02-24T06:36:28.787Z,-1.10
2019-02-24T06:38:57.557Z,-1.10
2019-02-24T06:41:26.364Z,-1.00
2019-02-24T06:43:55.137Z,-1.00
2019-02-24T06:46:24.004Z,-0.90
2019-02-24T06:48:52.803Z,-0.90
2019-02-24T06:51:21.625Z,-0.90
2019-02-24T06:53:50.427Z,-0.90
2019-02-24T06:56:19.459Z,-0.90
2019-02-24T06:58:48.286Z,-0.90
2019-02-24T07:01:17.333Z,-0.80
2019-02-24T07:03:46.459Z,-0.80
2019-02-24T07:06:15.377Z,-0.80
2019-02-24T07:08:44.252Z,-0.80
2019-02-24T07:11:13.443Z,-0.70
2019-02-24T07:13:42.267Z,-0.60
2019-02-24T07:16:11.134Z,-0.50
2019-02-24T07:18:39.923Z,-0.50
2019-02-24T07:21:08.740Z,-0.40
2019-02-24T07:23:37.874Z,-0.40
2019-02-24T07:26:06.736Z,-0.30
2019-02-24T07:28:35.620Z,-0.20
2019-02-24T07:31:04.389Z,-0.30
2019-02-24T07:33:33.191Z,-0.20
2019-02-24T07:36:02.151Z,-0.20
2019-02-24T07:38:31.074Z,0.00
2019-02-24T07:40:59.830Z,0.00
2019-02-24T07:43:28.962Z,0.00
2019-02-24T07:45:57.954Z,0.00
2019-02-24T07:48:26.668Z,0.10
2019-02-24T07:50:55.673Z,0.20
2019-02-24T07:53:24.540Z,0.20
2019-02-24T07:55:53.320Z,0.10
2019-02-24T07:58:22.191Z,0.20
2019-02-24T08:00:51.072Z,0.20
2019-02-24T08:03:19.887Z,0.30
2019-02-24T08:05:48.775Z,0.40
2019-02-24T08:08:17.519Z,0.40
2019-02-24T08:10:46.481Z,0.60
2019-02-24T08:13:15.688Z,0.60
2019-02-24T08:15:44.508Z,0.60
2019-02-24T08:18:14.439Z,0.70
2019-02-24T08:20:43.275Z,0.70
2019-02-24T08:23:12.723Z,0.70
2019-02-24T08:25:42.050Z,0.80
2019-02-24T08:28:10.950Z,0.90
2019-02-24T08:30:41.874Z,0.90
2019-02-24T08:33:10.902Z,0.80
2019-02-24T08:35:40.058Z,0.80
2019-02-24T08:38:08.880Z,0.80
2019-02-24T08:40:37.642Z,0.90
2019-02-24T08:43:06.424Z,1.00
2019-02-24T08:45:35.232Z,1.10
2019-02-24T08:48:04.194Z,1.20
2019-02-24T08:50:33.240Z,1.30
2019-02-24T08:53:02.025Z,1.40
2019-02-24T08:55:30.787Z,1.30
2019-02-24T08:57:59.563Z,1.40
2019-02-24T09:00:28.624Z,2.00
2019-02-24T09:02:57.340Z,1.90
2019-02-24T09:05:26.092Z,1.80
2019-02-24T09:07:54.944Z,1.80
2019-02-24T09:10:23.877Z,1.90
2019-02-24T09:12:52.630Z,2.00
2019-02-24T09:15:21.429Z,2.10
2019-02-24T09:17:50.395Z,2.20
2019-02-24T09:20:19.277Z,2.20
2019-02-24T09:22:48.072Z,2.30
2019-02-24T09:25:17.185Z,3.20
2019-02-24T09:27:46.097Z,3.80
2019-02-24T09:30:15.215Z,3.30
2019-02-24T09:32:44.018Z,3.70
2019-02-24T09:35:13.726Z,4.70
2019-02-24T09:37:50.138Z,5.40
2019-02-24T09:40:21.429Z,5.10
2019-02-24T09:42:53.506Z,4.20
2019-02-24T09:45:22.737Z,3.70
2019-02-24T09:47:51.804Z,3.60
2019-02-24T09:50:21.547Z,3.50
2019-02-24T09:52:50.306Z,3.60
2019-02-24T09:55:19.537Z,3.80
2019-02-24T09:57:48.366Z,3.80
2019-02-24T10:00:17.389Z,3.80
2019-02-24T10:02:46.370Z,4.10
2019-02-24T10:05:15.257Z,4.20
2019-02-24T10:07:44.223Z,4.30
2019-02-24T10:10:12.994Z,4.10
2019-02-24T10:12:41.794Z,4.20
2019-02-24T10:15:10.675Z,4.10
2019-02-24T10:17:39.568Z,4.30
2019-02-24T10:20:08.734Z,4.30
2019-02-24T10:22:38.085Z,4.20
2019-02-24T10:25:07.275Z,4.20
2019-02-24T10:27:36.187Z,4.20
2019-02-24T10:30:05.412Z,4.30
2019-02-24T10:32:34.503Z,4.40
2019-02-24T10:35:04.172Z,4.50
2019-02-24T10:37:32.993Z,4.60
2019-02-24T10:40:01.842Z,4.60
2019-02-24T10:42:30.722Z,4.60
2019-02-24T10:44:59.567Z,4.60
2019-02-24T10:47:28.375Z,4.80
2019-02-24T10:50:16.367Z,5.00
2019-02-24T10:52:45.607Z,5.60
2019-02-24T10:55:14.434Z,6.20
2019-02-24T10:57:43.259Z,7.00
2019-02-24T11:00:13.374Z,7.70
2019-02-24T11:02:42.395Z,9.00
2019-02-24T11:05:11.254Z,9.30
2019-02-24T11:07:40.127Z,9.50
2019-02-24T11:10:09.193Z,10.80
2019-02-24T11:12:38.651Z,10.10
2019-02-24T11:15:07.550Z,11.00
2019-02-24T11:17:36.420Z,10.90
2019-02-24T11:20:07.331Z,10.80
2019-02-24T11:22:36.183Z,11.30
2019-02-24T11:25:05.306Z,11.90
2019-02-24T11:27:34.419Z,11.60
2019-02-24T11:30:03.379Z,11.50
2019-02-24T11:32:32.283Z,11.50
2019-02-24T11:35:01.522Z,11.90
2019-02-24T11:37:32.356Z,13.00
2019-02-24T11:40:00.991Z,12.20
2019-02-24T11:42:29.816Z,12.70
2019-02-24T11:44:58.549Z,13.80
2019-02-24T11:47:27.339Z,12.80
2019-02-24T11:49:56.095Z,12.30
2019-02-24T11:52:24.954Z,12.80
2019-02-24T11:54:53.682Z,12.80
2019-02-24T11:57:23.115Z,13.50
2019-02-24T11:59:52.313Z,13.00
2019-02-24T12:02:21.242Z,13.50
2019-02-24T12:04:50.219Z,13.20
2019-02-24T12:07:18.999Z,13.60
2019-02-24T12:09:47.812Z,13.80
2019-02-24T12:12:16.640Z,13.80
2019-02-24T12:14:45.445Z,13.60
2019-02-24T12:17:14.595Z,13.90
2019-02-24T12:19:44.389Z,15.80
2019-02-24T12:22:13.199Z,15.60
2019-02-24T12:24:42.050Z,15.00
2019-02-24T12:27:13.000Z,14.80
2019-02-24T12:29:42.535Z,15.40
2019-02-24T12:32:11.321Z,15.80
2019-02-24T12:34:40.145Z,15.60
2019-02-24T12:37:09.416Z,16.00
2019-02-24T12:39:38.176Z,15.90
2019-02-24T12:42:07.720Z,16.10
2019-02-24T12:44:36.568Z,16.10
2019-02-24T12:47:05.895Z,16.00
2019-02-24T12:49:34.721Z,16.70
2019-02-24T12:52:03.445Z,16.90
2019-02-24T12:54:32.265Z,17.30
2019-02-24T12:57:01.076Z,17.40
2019-02-24T12:59:29.838Z,16.20
2019-02-24T13:02:05.472Z,16.90
2019-02-24T13:04:29.316Z,17.40
2019-02-24T13:06:58.206Z,17.00
2019-02-24T13:09:27.031Z,17.30
2019-02-24T13:11:56.684Z,17.40
2019-02-24T13:14:25.529Z,17.50
2019-02-24T13:16:54.416Z,17.70
2019-02-24T13:19:23.467Z,17.30
2019-02-24T13:21:52.300Z,16.60
2019-02-24T13:24:21.168Z,16.30
2019-02-24T13:26:50.044Z,16.70
2019-02-24T13:29:18.895Z,16.80
2019-02-24T13:31:47.831Z,17.90
2019-02-24T13:34:16.907Z,17.90
2019-02-24T13:36:45.943Z,17.50
2019-02-24T13:39:14.761Z,17.30
2019-02-24T13:41:44.028Z,18.10
2019-02-24T13:44:12.854Z,18.00
2019-02-24T13:46:41.993Z,17.30
2019-02-24T13:49:10.992Z,17.30
2019-02-24T13:51:39.917Z,17.20
2019-02-24T13:54:08.776Z,17.40
2019-02-24T13:56:37.531Z,17.20
2019-02-24T13:59:06.323Z,17.70
2019-02-24T14:01:41.648Z,17.50
2019-02-24T14:04:11.068Z,17.90
2019-02-24T14:06:39.899Z,17.70
2019-02-24T14:09:10.306Z,17.40
2019-02-24T14:11:39.130Z,17.30
2019-02-24T14:14:09.859Z,17.10
2019-02-24T14:16:38.480Z,16.80
2019-02-24T14:19:07.315Z,17.30
2019-02-24T14:21:36.105Z,15.80
2019-02-24T14:24:05.031Z,16.40
2019-02-24T14:26:33.872Z,16.90
2019-02-24T14:29:02.716Z,16.00
2019-02-24T14:31:31.560Z,15.00
2019-02-24T14:34:00.367Z,14.40
2019-02-24T14:36:29.190Z,13.90
2019-02-24T14:38:57.969Z,13.70
2019-02-24T14:41:28.333Z,14.50
2019-02-24T14:43:57.216Z,14.30
2019-02-24T14:46:26.148Z,13.90
2019-02-24T14:48:55.032Z,13.30
2019-02-24T14:51:23.841Z,12.70
2019-02-24T14:53:52.667Z,12.60
2019-02-24T14:56:21.454Z,12.30
2019-02-24T14:58:50.256Z,12.20
2019-02-24T15:01:19.088Z,11.90
2019-02-24T15:03:47.888Z,11.70
2019-02-24T15:06:16.706Z,11.60
2019-02-24T15:08:45.467Z,11.30
2019-02-24T15:11:14.734Z,11.10
2019-02-24T15:13:44.233Z,10.90
2019-02-24T15:16:13.033Z,10.80
2019-02-24T15:18:41.802Z,10.60
2019-02-24T15:21:10.897Z,10.50
2019-02-24T15:23:40.043Z,10.90
2019-02-24T15:26:08.836Z,11.40
2019-02-24T15:28:37.630Z,12.20
2019-02-24T15:31:06.507Z,12.00
2019-02-24T15:33:35.774Z,11.90
2019-02-24T15:36:04.725Z,11.80
2019-02-24T15:38:33.532Z,11.30
2019-02-24T15:41:02.348Z,10.90
2019-02-24T15:43:31.170Z,10.60
2019-02-24T15:46:00.023Z,10.60
2019-02-24T15:48:29.663Z,10.40
2019-02-24T15:50:58.733Z,10.00
2019-02-24T15:53:27.573Z,10.00
2019-02-24T15:55:56.811Z,10.00
2019-02-24T15:58:25.632Z,10.00
2019-02-24T16:00:54.534Z,10.00
2019-02-24T16:03:23.266Z,9.60
2019-02-24T16:05:52.048Z,9.20
2019-02-24T16:08:21.198Z,9.20
2019-02-24T16:10:50.004Z,9.10
2019-02-24T16:13:18.851Z,8.80
2019-02-24T16:15:47.651Z,8.90
2019-02-24T16:18:16.403Z,8.80
2019-02-24T16:20:45.380Z,8.60
2019-02-24T16:23:14.092Z,8.50
2019-02-24T16:25:42.851Z,8.60
2019-02-24T16:28:11.648Z,8.50
2019-02-24T16:30:40.549Z,8.50
2019-02-24T16:33:10.804Z,8.60
2019-02-24T16:35:40.081Z,8.70
2019-02-24T16:38:08.895Z,8.50
2019-02-24T16:40:37.624Z,8.50
2019-02-24T16:43:06.431Z,8.40
2019-02-24T16:45:35.562Z,8.40
2019-02-24T16:48:04.525Z,8.30
2019-02-24T16:50:33.426Z,8.30
2019-02-24T16:53:02.606Z,8.10
2019-02-24T16:55:31.344Z,7.90
2019-02-24T16:58:00.172Z,7.60
2019-02-24T17:00:29.093Z,7.50
2019-02-24T17:02:58.089Z,7.50
2019-02-24T17:05:27.059Z,7.40
2019-02-24T17:07:55.868Z,7.20
2019-02-24T17:10:24.750Z,7.20
2019-02-24T17:12:53.566Z,7.10
2019-02-24T17:15:22.779Z,6.90
2019-02-24T17:17:51.975Z,6.70
2019-02-24T17:20:20.939Z,6.50
2019-02-24T17:22:49.802Z,6.50
2019-02-24T17:25:18.783Z,6.50
2019-02-24T17:27:47.694Z,6.70
2019-02-24T17:30:16.858Z,6.60
2019-02-24T17:32:46.900Z,6.50
2019-02-24T17:35:15.694Z,6.30
2019-02-24T17:37:44.704Z,6.20
2019-02-24T17:40:13.733Z,6.10
2019-02-24T17:42:42.558Z,6.40
2019-02-24T17:45:12.215Z,6.50
2019-02-24T17:47:41.074Z,6.40
2019-02-24T17:50:11.169Z,6.40
2019-02-24T17:52:40.256Z,6.30
2019-02-24T17:55:10.129Z,6.20
2019-02-24T17:57:39.007Z,6.10
2019-02-24T18:00:14.234Z,6.10
2019-02-24T18:02:43.053Z,6.00
2019-02-24T18:05:12.172Z,5.90
2019-02-24T18:07:41.078Z,5.70
2019-02-24T18:10:10.133Z,5.60
2019-02-24T18:12:39.045Z,5.50
2019-02-24T18:15:09.137Z,5.50
2019-02-24T18:17:37.907Z,5.40
2019-02-24T18:20:08.015Z,5.30
2019-02-24T18:22:36.837Z,5.20
2019-02-24T18:25:07.099Z,5.10
2019-02-24T18:27:35.901Z,5.30
2019-02-24T18:30:06.571Z,5.30
2019-02-24T18:32:35.455Z,5.20
2019-02-24T18:35:04.390Z,5.10
2019-02-24T18:37:33.535Z,4.90
2019-02-24T18:40:02.456Z,4.90
2019-02-24T18:42:31.381Z,4.70
2019-02-24T18:45:00.348Z,4.70
2019-02-24T18:47:29.766Z,4.70
2019-02-24T18:49:59.272Z,4.60
2019-02-24T18:52:28.143Z,4.60
2019-02-24T18:54:57.168Z,4.70
2019-02-24T18:57:26.075Z,4.80
2019-02-24T18:59:55.950Z,4.60
2019-02-24T19:02:24.909Z,4.50
2019-02-24T19:04:54.059Z,4.40
2019-02-24T19:07:22.923Z,4.30
2019-02-24T19:09:51.868Z,4.20
2019-02-24T19:12:20.994Z,4.10
2019-02-24T19:14:49.972Z,4.00
2019-02-24T19:17:19.070Z,4.00
2019-02-24T19:19:47.825Z,3.90
2019-02-24T19:22:16.665Z,3.90
2019-02-24T19:24:45.660Z,3.70
2019-02-24T19:27:14.587Z,3.70
2019-02-24T19:29:43.670Z,3.60
2019-02-24T19:32:12.719Z,3.40
2019-02-24T19:34:41.840Z,3.40
2019-02-24T19:37:10.747Z,3.50
2019-02-24T19:39:40.058Z,3.60
2019-02-24T19:42:08.985Z,3.50
2019-02-24T19:44:37.857Z,3.40
2019-02-24T19:47:06.860Z,3.30
2019-02-24T19:49:35.792Z,3.10
2019-02-24T19:52:04.750Z,3.10
2019-02-24T19:54:33.524Z,3.10
2019-02-24T19:57:02.320Z,3.00
2019-02-24T19:59:31.211Z,2.80
2019-02-24T20:02:00.124Z,2.80
2019-02-24T20:04:29.057Z,2.90
2019-02-24T20:06:57.995Z,2.90
2019-02-24T20:09:26.871Z,2.90
2019-02-24T20:11:55.683Z,2.90
2019-02-24T20:14:24.852Z,2.80
2019-02-24T20:16:53.794Z,2.80
2019-02-24T20:19:22.709Z,2.90
2019-02-24T20:21:51.656Z,2.80
2019-02-24T20:24:20.529Z,2.70
2019-02-24T20:26:49.604Z,2.70
2019-02-24T20:29:18.490Z,2.70
2019-02-24T20:31:47.439Z,2.80
2019-02-24T20:34:24.964Z,2.70
2019-02-24T20:36:47.043Z,2.70
2019-02-24T20:39:15.898Z,2.70
2019-02-24T20:41:44.748Z,2.60
2019-02-24T20:44:13.975Z,2.50
2019-02-24T20:46:42.904Z,2.40
2019-02-24T20:49:11.795Z,2.60
2019-02-24T20:51:40.572Z,2.50
2019-02-24T20:54:09.562Z,2.30
2019-02-24T20:56:38.906Z,2.30
2019-02-24T20:59:07.720Z,2.30
2019-02-24T21:01:36.527Z,2.20
2019-02-24T21:04:05.322Z,2.20
2019-02-24T21:06:34.127Z,2.20
2019-02-24T21:09:03.032Z,2.20
2019-02-24T21:11:31.948Z,2.20
2019-02-24T21:14:01.327Z,2.10
2019-02-24T21:16:30.138Z,2.00
2019-02-24T21:18:58.971Z,1.90
2019-02-24T21:21:27.910Z,1.90
2019-02-24T21:23:56.852Z,1.90
2019-02-24T21:26:26.508Z,1.80
2019-02-24T21:28:55.385Z,1.80
2019-02-24T21:31:24.157Z,1.80
2019-02-24T21:33:53.006Z,1.80
2019-02-24T21:36:21.829Z,1.70
2019-02-24T21:38:50.664Z,1.70
2019-02-24T21:41:19.432Z,1.60
2019-02-24T21:43:48.194Z,1.60
2019-02-24T21:46:17.013Z,1.60
2019-02-24T21:48:45.892Z,1.40
2019-02-24T21:51:14.955Z,1.40
2019-02-24T21:53:43.788Z,1.30
2019-02-24T21:56:13.152Z,1.30
2019-02-24T21:58:42.040Z,1.20
2019-02-24T22:01:10.831Z,1.20
2019-02-24T22:03:39.616Z,1.20
2019-02-24T22:06:08.449Z,1.20
2019-02-24T22:08:37.197Z,1.10
2019-02-24T22:11:06.024Z,1.10
2019-02-24T22:13:35.255Z,1.20
2019-02-24T22:16:04.116Z,1.20
2019-02-24T22:18:32.906Z,1.20
2019-02-24T22:21:01.666Z,1.20
2019-02-24T22:23:30.443Z,1.10
2019-02-24T22:25:59.475Z,1.10
2019-02-24T22:28:28.276Z,1.10
2019-02-24T22:30:57.378Z,1.00
2019-02-24T22:33:26.395Z,1.10
2019-02-24T22:35:55.621Z,1.10
2019-02-24T22:38:24.936Z,1.10
2019-02-24T22:40:54.613Z,1.00
2019-02-24T22:43:24.703Z,1.00
2019-02-24T22:45:53.436Z,1.00
2019-02-24T22:48:22.531Z,1.10
2019-02-24T22:50:51.385Z,1.00
2019-02-24T22:53:20.535Z,0.90
2019-02-24T22:55:49.357Z,0.80
2019-02-24T22:58:18.532Z,0.80
2019-02-24T23:01:02.437Z,0.80
2019-02-24T23:03:34.236Z,0.80
2019-02-24T23:06:03.271Z,0.90
2019-02-24T23:08:32.131Z,0.90
2019-02-24T23:11:01.003Z,0.80
2019-02-24T23:13:29.896Z,0.70
2019-02-24T23:15:58.746Z,0.80
2019-02-24T23:18:27.595Z,0.90
2019-02-24T23:20:57.394Z,0.90
2019-02-24T23:23:26.450Z,0.90
2019-02-24T23:25:55.293Z,0.90
2019-02-24T23:28:24.052Z,0.90
2019-02-24T23:30:52.831Z,0.80
2019-02-24T23:33:22.360Z,0.70
2019-02-24T23:35:51.155Z,0.70
2019-02-24T23:38:19.966Z,0.60
2019-02-24T23:40:49.048Z,0.60
2019-02-24T23:43:17.930Z,0.60
2019-02-24T23:45:46.760Z,0.60
2019-02-24T23:48:15.506Z,0.60
2019-02-24T23:50:44.731Z,0.60
2019-02-24T23:53:13.694Z,0.60
2019-02-24T23:55:42.958Z,0.50
2019-02-24T23:58:12.326Z,0.50
